Time;durP1;ratioP1;P1;durP2;ratioP2;P2;SDS_P1;SDS_P2;PMS_P1;PMS_P2;Temp;Humidity;BMP_temperature;BMP_pressure;BME280_temperature;BME280_humidity;BME280_pressure;Samples;Min_cycle;Max_cycle;Signal;HPM_P1;HPM_P2
2021/10/18 00:01:41;;;;;;;1.38;0.88;;;;;;;4.37;60.13;100993.59;5103524;28;20026;-70
2021/10/18 00:04:07;;;;;;;1.20;0.90;;;;;;;4.43;60.05;100991.19;5103691;28;20019;-70
2021/10/18 00:06:32;;;;;;;1.77;1.08;;;;;;;4.46;59.88;100989.56;5103552;28;20028;-72
2021/10/18 00:08:58;;;;;;;1.85;1.15;;;;;;;4.48;59.65;100992.19;5103243;28;20035;-70
2021/10/18 00:11:24;;;;;;;2.35;0.80;;;;;;;4.53;59.80;100998.31;5103179;28;20084;-70
2021/10/18 00:13:50;;;;;;;2.70;1.13;;;;;;;4.50;59.41;100993.09;5103635;28;20031;-70
2021/10/18 00:16:15;;;;;;;2.97;1.00;;;;;;;4.56;59.45;100988.13;5103443;28;20077;-70
2021/10/18 00:18:41;;;;;;;2.47;0.93;;;;;;;4.56;59.39;100992.38;5103123;28;20020;-69
2021/10/18 00:21:06;;;;;;;1.98;1.00;;;;;;;4.53;59.33;100993.19;5103327;28;20028;-68
2021/10/18 00:23:31;;;;;;;2.15;1.10;;;;;;;4.44;59.56;100980.94;5102981;28;20040;-70
2021/10/18 00:25:57;;;;;;;2.25;0.98;;;;;;;4.43;59.43;100994.63;5103757;28;20031;-70
2021/10/18 00:28:22;;;;;;;1.88;0.93;;;;;;;4.37;59.35;100991.91;5103175;28;20024;-70
2021/10/18 00:30:48;;;;;;;2.72;0.98;;;;;;;4.36;59.28;100985.00;5103448;28;20055;-70
2021/10/18 00:33:14;;;;;;;2.75;1.00;;;;;;;4.39;59.33;100987.69;5103359;28;20021;-70
2021/10/18 00:35:39;;;;;;;1.75;1.10;;;;;;;4.36;59.38;100991.88;5103162;28;20119;-70
2021/10/18 00:38:05;;;;;;;1.95;1.02;;;;;;;4.34;59.50;100996.97;5103425;28;20028;-70
2021/10/18 00:40:30;;;;;;;2.20;1.75;;;;;;;4.32;59.48;101004.63;5103490;28;20054;-71
2021/10/18 00:42:56;;;;;;;1.05;0.82;;;;;;;4.28;59.30;100999.38;5102836;28;20023;-70
2021/10/18 00:45:21;;;;;;;1.38;0.90;;;;;;;4.28;59.32;100994.25;5102959;28;20093;-70
2021/10/18 00:47:47;;;;;;;2.22;2.03;;;;;;;4.42;59.13;101010.91;5102872;28;20020;-70
2021/10/18 00:50:13;;;;;;;1.90;1.20;;;;;;;4.47;58.93;101005.88;5102862;28;20028;-70
2021/10/18 00:52:39;;;;;;;3.05;0.88;;;;;;;4.54;59.01;101019.75;5102435;28;20016;-71
2021/10/18 00:55:05;;;;;;;1.63;1.17;;;;;;;4.52;58.94;100995.72;5102467;28;20054;-70
2021/10/18 00:57:31;;;;;;;1.38;0.95;;;;;;;4.51;59.13;101010.25;5104507;28;20039;-69
2021/10/18 01:00:00;;;;;;;2.33;1.08;;;;;;;4.49;59.22;101000.78;5106276;28;20016;-71
2021/10/18 01:02:26;;;;;;;2.30;1.00;;;;;;;4.42;59.24;101003.19;5106199;28;20376;-70
2021/10/18 01:04:52;;;;;;;2.63;0.90;;;;;;;4.31;59.36;101002.03;5087832;28;20016;-70
2021/10/18 01:07:17;;;;;;;1.67;0.95;;;;;;;4.31;59.41;101012.31;5106245;28;20035;-70
2021/10/18 01:09:43;;;;;;;1.40;1.00;;;;;;;4.22;59.43;101000.06;5087870;28;20344;-70
2021/10/18 01:12:08;;;;;;;1.40;0.90;;;;;;;4.27;59.02;101005.31;5105870;28;20020;-71
2021/10/18 01:14:34;;;;;;;1.33;0.80;;;;;;;4.39;58.98;101005.69;5106083;28;20048;-70
2021/10/18 01:17:00;;;;;;;1.08;0.80;;;;;;;4.43;58.95;101004.94;5106012;28;20024;-70
2021/10/18 01:19:26;;;;;;;1.77;1.00;;;;;;;4.49;58.73;101006.78;5105525;28;20024;-71
2021/10/18 01:21:57;;;;;;;1.45;0.90;;;;;;;4.43;58.80;101002.34;5105612;28;20024;-71
2021/10/18 01:24:23;;;;;;;3.28;1.13;;;;;;;4.32;59.22;101024.31;5106139;28;20050;-70
2021/10/18 01:26:48;;;;;;;3.75;1.30;;;;;;;4.23;59.66;101024.97;5105741;28;20032;-71
2021/10/18 01:29:13;;;;;;;2.42;1.38;;;;;;;4.14;59.95;101030.69;5105713;28;20042;-71
2021/10/18 01:31:42;;;;;;;2.10;1.27;;;;;;;4.03;60.08;101035.53;5105740;28;20115;-70
2021/10/18 01:34:08;;;;;;;1.52;1.08;;;;;;;3.99;60.13;101027.69;5105844;28;20028;-71
2021/10/18 01:36:35;;;;;;;2.10;1.10;;;;;;;3.92;60.37;101039.47;5105794;28;20020;-71
2021/10/18 01:39:00;;;;;;;1.70;1.15;;;;;;;3.83;60.68;101037.53;5105666;28;20028;-71
2021/10/18 01:41:26;;;;;;;1.80;1.10;;;;;;;3.78;60.69;101023.66;5105313;28;20031;-71
2021/10/18 01:43:51;;;;;;;5.07;1.20;;;;;;;3.82;60.64;101033.19;5105654;28;20026;-71
2021/10/18 01:46:17;;;;;;;2.00;1.20;;;;;;;3.87;60.80;101035.91;5105504;28;20042;-71
2021/10/18 01:48:42;;;;;;;2.33;1.20;;;;;;;3.84;60.64;101034.13;5105230;28;20416;-70
2021/10/18 01:51:09;;;;;;;2.40;1.20;;;;;;;3.91;60.87;101035.19;5105511;28;20024;-71
2021/10/18 01:53:35;;;;;;;2.60;1.10;;;;;;;3.91;60.85;101033.50;5105253;28;20024;-71
2021/10/18 01:56:00;;;;;;;2.25;1.20;;;;;;;3.99;60.89;101040.53;5105273;28;20020;-71
2021/10/18 01:58:25;;;;;;;1.85;1.08;;;;;;;4.03;60.72;101040.66;5105028;28;20016;-71
2021/10/18 02:00:51;;;;;;;2.05;1.00;;;;;;;4.07;60.60;101039.06;5105340;28;20460;-70
2021/10/18 02:03:16;;;;;;;1.48;1.08;;;;;;;4.13;60.49;101046.06;5105060;28;20028;-71
2021/10/18 02:05:42;;;;;;;1.20;0.80;;;;;;;4.12;60.21;101040.03;5105138;28;20020;-70
2021/10/18 02:08:07;;;;;;;1.38;0.80;;;;;;;4.18;60.13;101040.25;5104448;28;20033;-70
2021/10/18 02:10:33;;;;;;;0.80;0.70;;;;;;;4.24;59.96;101041.22;5105033;28;20048;-69
2021/10/18 02:12:58;;;;;;;1.30;0.80;;;;;;;4.35;59.80;101044.97;5120358;28;20024;-69
2021/10/18 02:15:23;;;;;;;1.08;0.70;;;;;;;4.41;59.57;101042.56;5104761;28;20038;-70
2021/10/18 02:17:49;;;;;;;1.15;0.70;;;;;;;4.50;59.46;101043.66;5104662;28;20024;-72
2021/10/18 02:20:15;;;;;;;1.50;0.73;;;;;;;4.58;59.04;101044.75;5104873;28;20087;-71
2021/10/18 02:22:41;;;;;;;3.30;1.27;;;;;;;4.66;58.97;101043.25;5104631;28;20044;-71
2021/10/18 02:25:08;;;;;;;1.35;0.77;;;;;;;4.69;58.71;101040.75;5104738;28;20081;-70
2021/10/18 02:27:34;;;;;;;0.90;0.70;;;;;;;4.71;58.62;101048.50;5104566;28;20035;-70
2021/10/18 02:30:00;;;;;;;1.83;0.93;;;;;;;4.67;58.74;101042.41;5104590;28;20016;-70
2021/10/18 02:32:25;;;;;;;0.88;0.80;;;;;;;4.63;58.77;101050.00;5086148;28;20071;-70
2021/10/18 02:34:50;;;;;;;3.55;1.00;;;;;;;4.57;58.65;101058.41;5104326;28;20024;-70
2021/10/18 02:37:16;;;;;;;1.15;0.93;;;;;;;4.46;58.78;101043.56;5104318;28;20024;-70
2021/10/18 02:39:41;;;;;;;1.30;0.70;;;;;;;4.46;58.68;101059.00;5104635;28;20027;-70
2021/10/18 02:42:09;;;;;;;1.55;0.90;;;;;;;4.43;58.62;101058.03;5104049;28;20051;-70
2021/10/18 02:44:34;;;;;;;2.58;1.42;;;;;;;4.37;58.77;101052.72;5104629;28;20036;-70
2021/10/18 02:46:59;;;;;;;1.00;0.90;;;;;;;4.29;59.07;101052.50;5104309;28;20043;-70
2021/10/18 02:49:25;;;;;;;1.75;1.00;;;;;;;4.28;59.01;101058.50;5104400;28;20031;-69
2021/10/18 02:51:50;;;;;;;2.50;1.30;;;;;;;4.21;59.15;101053.19;5104504;28;20020;-69
2021/10/18 02:54:16;;;;;;;1.92;1.10;;;;;;;4.13;59.17;101052.09;5104171;28;20044;-69
2021/10/18 02:56:42;;;;;;;1.17;0.77;;;;;;;4.08;59.07;101054.53;5104083;28;20020;-69
2021/10/18 02:59:07;;;;;;;1.38;0.77;;;;;;;4.01;59.33;101044.88;5104367;28;20028;-71
2021/10/18 03:01:32;;;;;;;0.68;0.60;;;;;;;4.08;59.24;101056.22;5104410;28;20460;-70
2021/10/18 03:03:58;;;;;;;0.60;0.60;;;;;;;4.07;59.27;101045.06;5104545;28;20023;-70
2021/10/18 03:06:23;;;;;;;2.85;0.80;;;;;;;4.16;59.18;101052.19;5085978;28;20024;-70
2021/10/18 03:08:49;;;;;;;0.98;0.77;;;;;;;4.21;59.19;101053.19;5085928;28;20042;-70
2021/10/18 03:11:14;;;;;;;5.53;1.10;;;;;;;4.19;59.07;101053.94;5104187;28;20044;-70
2021/10/18 03:13:39;;;;;;;1.60;1.08;;;;;;;4.18;59.40;101059.94;5104191;28;20024;-71
2021/10/18 03:16:05;;;;;;;2.28;1.13;;;;;;;4.11;59.78;101070.84;5104144;28;20028;-72
2021/10/18 03:18:30;;;;;;;2.63;1.30;;;;;;;4.00;59.86;101067.97;5104049;28;20024;-70
2021/10/18 03:20:55;;;;;;;1.45;0.82;;;;;;;3.87;59.95;101059.91;5103260;28;20035;-70
2021/10/18 03:23:21;;;;;;;1.42;0.90;;;;;;;3.82;59.85;101059.75;5104152;28;20099;-70
2021/10/18 03:25:46;;;;;;;1.50;1.10;;;;;;;3.86;59.98;101060.75;5104005;28;20118;-70
2021/10/18 03:28:12;;;;;;;2.13;0.80;;;;;;;3.99;59.63;101066.22;5119425;28;20475;-70
2021/10/18 03:30:37;;;;;;;1.52;0.70;;;;;;;4.09;59.66;101075.94;5103717;28;20023;-69
2021/10/18 03:33:02;;;;;;;0.90;0.73;;;;;;;4.14;59.53;101089.81;5103796;28;20020;-70
2021/10/18 03:35:28;;;;;;;2.92;1.23;;;;;;;4.11;59.45;101083.69;5103743;28;20020;-71
2021/10/18 03:37:53;;;;;;;2.58;1.35;;;;;;;3.94;59.80;101084.97;5103880;28;20031;-70
2021/10/18 03:40:19;;;;;;;6.07;1.67;;;;;;;3.82;60.13;101084.56;5085820;28;20471;-70
2021/10/18 03:42:44;;;;;;;1.88;1.13;;;;;;;3.66;60.42;101078.13;5103426;28;20023;-71
2021/10/18 03:45:12;;;;;;;1.45;0.80;;;;;;;3.56;60.69;101082.09;5103570;28;20496;-70
2021/10/18 03:47:37;;;;;;;1.98;0.90;;;;;;;3.50;60.89;101087.03;5103269;28;20294;-70
2021/10/18 03:50:04;;;;;;;1.17;0.95;;;;;;;3.46;61.01;101079.22;5103261;28;20016;-69
2021/10/18 03:52:31;;;;;;;1.67;1.10;;;;;;;3.32;61.17;101062.50;5103080;28;20080;-69
2021/10/18 03:54:56;;;;;;;1.73;1.02;;;;;;;3.42;61.21;101090.22;5103314;28;20024;-69
2021/10/18 03:57:21;;;;;;;1.58;0.80;;;;;;;3.25;61.19;101061.44;5103123;28;20384;-69
2021/10/18 03:59:47;;;;;;;2.92;0.90;;;;;;;3.43;61.53;101085.97;5103217;28;20052;-70
2021/10/18 04:02:14;;;;;;;1.25;0.90;;;;;;;3.47;61.58;101085.22;5103216;28;20020;-70
2021/10/18 04:04:39;;;;;;;1.75;0.80;;;;;;;3.47;61.67;101080.09;5103166;28;20024;-71
2021/10/18 04:07:04;;;;;;;0.85;0.70;;;;;;;3.53;61.61;101077.72;5118742;28;20020;-70
2021/10/18 04:09:30;;;;;;;0.98;0.77;;;;;;;3.60;61.55;101083.91;5103231;28;20020;-69
2021/10/18 04:11:55;;;;;;;1.00;0.80;;;;;;;3.58;61.67;101086.44;5103250;28;20142;-70
2021/10/18 04:14:20;;;;;;;1.50;0.90;;;;;;;3.43;61.65;101071.44;5118341;28;20125;-70
2021/10/18 04:16:46;;;;;;;1.45;1.00;;;;;;;3.60;61.62;101109.59;5102810;28;20024;-70
2021/10/18 04:19:11;;;;;;;1.50;0.80;;;;;;;3.58;61.59;101106.97;5102800;28;20030;-70
2021/10/18 04:21:36;;;;;;;1.20;0.80;;;;;;;3.58;61.49;101100.97;5102808;28;20065;-69
2021/10/18 04:24:02;;;;;;;1.70;0.95;;;;;;;3.46;61.63;101083.50;5102492;28;20127;-70
2021/10/18 04:26:28;;;;;;;3.05;0.93;;;;;;;3.59;61.60;101110.44;5102575;28;20053;-71
2021/10/18 04:28:54;;;;;;;1.35;0.90;;;;;;;3.51;61.66;101099.91;5118288;28;20020;-65
2021/10/18 04:31:20;;;;;;;1.65;0.70;;;;;;;3.60;61.65;101114.72;5103081;28;20034;-70
2021/10/18 04:33:45;;;;;;;3.05;0.70;;;;;;;3.51;61.54;101093.91;5106531;28;20114;-69
2021/10/18 04:36:11;;;;;;;1.20;0.80;;;;;;;3.60;61.30;101089.06;5088002;28;20060;-68
2021/10/18 04:38:36;;;;;;;2.25;0.75;;;;;;;3.67;60.99;101092.69;5106235;28;20137;-69
2021/10/18 04:41:01;;;;;;;1.42;0.90;;;;;;;3.86;60.93;101109.53;5106808;28;20083;-69
2021/10/18 04:43:27;;;;;;;2.08;0.80;;;;;;;3.87;60.99;101118.97;5106782;28;20472;-69
2021/10/18 04:45:52;;;;;;;1.38;0.75;;;;;;;3.91;60.98;101109.69;5122548;28;20046;-70
2021/10/18 04:48:17;;;;;;;0.80;0.73;;;;;;;3.94;60.73;101120.94;5106549;28;20060;-69
2021/10/18 04:50:43;;;;;;;1.10;0.65;;;;;;;3.79;60.57;101089.63;5106942;28;20020;-70
2021/10/18 04:53:08;;;;;;;1.42;0.82;;;;;;;3.95;60.55;101122.66;5106902;28;20401;-69
2021/10/18 04:55:33;;;;;;;2.75;0.82;;;;;;;3.93;60.59;101126.03;5107139;28;20023;-70
2021/10/18 04:58:06;;;;;;;2.28;0.98;;;;;;;3.86;60.61;101124.06;5106684;28;20027;-69
2021/10/18 05:00:36;;;;;;;1.52;0.90;;;;;;;3.78;60.68;101126.41;5106716;28;20023;-70
2021/10/18 05:03:02;;;;;;;1.45;0.73;;;;;;;3.71;60.79;101121.09;5106761;28;20059;-69
2021/10/18 05:05:27;;;;;;;2.75;0.82;;;;;;;3.69;60.98;101127.00;5106718;28;20030;-69
2021/10/18 05:08:00;;;;;;;2.80;0.98;;;;;;;3.68;61.02;101123.56;5088249;28;20048;-69
2021/10/18 05:10:25;;;;;;;0.60;0.60;;;;;;;3.62;60.94;101113.09;5106554;28;20024;-69
2021/10/18 05:12:50;;;;;;;2.60;1.38;;;;;;;3.67;61.14;101126.97;5106259;28;20031;-69
2021/10/18 05:15:16;;;;;;;2.70;0.95;;;;;;;3.64;61.25;101120.84;5088107;28;20038;-69
2021/10/18 05:17:41;;;;;;;1.75;0.90;;;;;;;3.52;61.37;101111.03;5088224;28;20044;-69
2021/10/18 05:20:07;;;;;;;1.77;0.70;;;;;;;3.41;61.49;101110.69;5106169;28;20039;-70
2021/10/18 05:22:32;;;;;;;2.83;1.20;;;;;;;3.43;61.43;101138.19;5105770;28;20044;-68
2021/10/18 05:24:57;;;;;;;2.42;1.15;;;;;;;3.29;61.50;101129.16;5106130;28;20073;-69
2021/10/18 05:27:23;;;;;;;1.08;0.90;;;;;;;3.20;61.99;101129.69;5087586;28;20016;-69
2021/10/18 05:29:48;;;;;;;3.05;0.90;;;;;;;3.28;62.75;101140.22;5106066;28;20083;-69
2021/10/18 05:32:13;;;;;;;0.90;0.70;;;;;;;3.27;63.06;101115.38;5105833;28;20053;-68
2021/10/18 05:34:39;;;;;;;1.60;0.80;;;;;;;3.56;62.83;101138.56;5105994;28;20028;-69
2021/10/18 05:37:04;;;;;;;1.20;0.90;;;;;;;3.58;62.55;101148.06;5106119;28;20024;-69
2021/10/18 05:39:29;;;;;;;1.65;1.08;;;;;;;3.56;62.31;101146.28;5105899;28;20457;-68
2021/10/18 05:41:55;;;;;;;3.00;1.08;;;;;;;3.50;62.25;101146.94;5105696;28;20088;-68
2021/10/18 05:44:21;;;;;;;2.72;1.10;;;;;;;3.43;62.14;101145.00;5104852;28;20031;-69
2021/10/18 05:46:46;;;;;;;1.85;0.98;;;;;;;3.32;62.39;101140.38;5106051;28;20066;-69
2021/10/18 05:49:12;;;;;;;3.03;1.00;;;;;;;3.26;62.62;101154.72;5105897;28;20028;-71
2021/10/18 05:51:37;;;;;;;2.35;1.42;;;;;;;3.19;62.65;101154.50;5105651;28;20519;-70
2021/10/18 05:54:04;;;;;;;4.35;1.00;;;;;;;3.13;62.80;101161.97;5087286;28;20087;-70
2021/10/18 05:56:29;;;;;;;2.60;0.80;;;;;;;3.06;62.78;101166.03;5105408;28;20020;-68
2021/10/18 05:58:54;;;;;;;3.83;1.10;;;;;;;3.06;63.03;101172.84;5087176;28;20062;-70
2021/10/18 06:01:20;;;;;;;2.00;1.00;;;;;;;3.09;63.36;101173.84;5105643;28;20020;-69
2021/10/18 06:03:45;;;;;;;1.88;0.77;;;;;;;3.15;63.41;101168.03;5105362;28;20020;-68
2021/10/18 06:06:11;;;;;;;1.55;1.10;;;;;;;3.24;63.34;101170.06;5105494;28;20032;-69
2021/10/18 06:08:39;;;;;;;3.45;0.80;;;;;;;3.28;63.44;101166.75;5105590;28;20035;-70
2021/10/18 06:11:04;;;;;;;2.78;0.98;;;;;;;3.28;63.33;101168.44;5105398;28;20024;-70
2021/10/18 06:13:30;;;;;;;2.20;1.00;;;;;;;3.28;63.25;101163.31;5105230;28;20100;-70
2021/10/18 06:15:56;;;;;;;1.77;0.90;;;;;;;3.25;63.51;101163.22;5105381;28;20027;-70
2021/10/18 06:18:21;;;;;;;1.33;0.75;;;;;;;3.34;63.67;101178.91;5105360;28;20047;-70
2021/10/18 06:20:53;;;;;;;2.38;0.80;;;;;;;3.49;63.98;101182.81;5087016;28;20436;-70
2021/10/18 06:23:21;;;;;;;1.58;1.00;;;;;;;3.68;64.00;101186.88;5120838;28;20032;-69
2021/10/18 06:25:47;;;;;;;1.50;0.88;;;;;;;3.80;63.75;101187.28;5105263;28;20028;-69
2021/10/18 06:28:13;;;;;;;1.63;1.00;;;;;;;3.86;63.69;101186.63;5104760;28;20384;-69
2021/10/18 06:30:39;;;;;;;2.45;1.10;;;;;;;3.94;63.50;101198.00;5105037;28;20460;-69
2021/10/18 06:33:05;;;;;;;1.27;1.08;;;;;;;3.95;63.28;101189.47;5105272;28;20024;-71
2021/10/18 06:35:34;;;;;;;2.70;1.33;;;;;;;3.94;63.21;101195.44;5105124;28;20112;-69
2021/10/18 06:38:08;;;;;;;2.40;1.08;;;;;;;3.96;63.20;101205.75;5104537;28;20114;-70
2021/10/18 06:40:34;;;;;;;1.77;0.90;;;;;;;4.07;63.41;101204.38;5104951;28;20028;-70
2021/10/18 06:42:59;;;;;;;2.33;0.80;;;;;;;4.51;63.94;101215.09;5104645;28;20447;-70
2021/10/18 06:45:25;;;;;;;2.88;0.82;;;;;;;5.23;63.67;101212.84;5104686;28;20070;-70
2021/10/18 06:47:50;;;;;;;2.33;0.88;;;;;;;5.94;62.81;101207.72;5104597;28;20089;-69
2021/10/18 06:50:16;;;;;;;1.23;0.90;;;;;;;6.62;62.22;101208.38;5104336;28;20402;-70
2021/10/18 06:52:42;;;;;;;4.05;1.00;;;;;;;7.21;61.32;101207.78;5104515;28;20039;-69
2021/10/18 06:55:11;;;;;;;1.30;0.80;;;;;;;7.87;60.31;101210.66;5086181;28;20024;-68
2021/10/18 06:57:37;;;;;;;1.58;0.80;;;;;;;8.49;58.73;101214.94;5104338;28;20039;-69
2021/10/18 07:00:05;;;;;;;1.10;0.70;;;;;;;8.89;56.84;101212.91;5104763;28;20027;-70
2021/10/18 07:02:30;;;;;;;0.88;0.60;;;;;;;9.12;55.68;101222.63;5104582;28;20020;-70
2021/10/18 07:04:58;;;;;;;2.17;0.80;;;;;;;9.18;53.67;101216.66;5104523;28;20039;-70
2021/10/18 07:07:26;;;;;;;1.25;0.85;;;;;;;9.13;54.20;101221.81;5104615;28;20073;-70
2021/10/18 07:10:05;;;;;;;1.05;0.88;;;;;;;9.27;54.27;101216.75;5120032;28;20020;-70
2021/10/18 07:12:34;;;;;;;2.10;0.95;;;;;;;9.58;53.09;101215.31;5104072;28;20024;-70
2021/10/18 07:15:00;;;;;;;3.88;1.10;;;;;;;9.75;52.18;101216.31;5104001;28;20482;-70
2021/10/18 07:17:27;;;;;;;1.85;0.90;;;;;;;9.89;52.66;101220.72;5104175;28;20028;-71
2021/10/18 07:19:53;;;;;;;3.08;0.90;;;;;;;10.10;52.66;101213.97;5104163;28;20016;-71
2021/10/18 07:22:24;;;;;;;1.30;0.80;;;;;;;10.61;52.16;101219.47;5119744;28;20039;-70
2021/10/18 07:24:52;;;;;;;1.83;0.93;;;;;;;11.07;51.50;101220.50;5104215;28;20043;-70
2021/10/18 07:27:18;;;;;;;4.30;1.23;;;;;;;11.44;48.88;101221.44;5085306;28;20036;-68
2021/10/18 07:29:44;;;;;;;2.40;1.02;;;;;;;11.53;47.73;101226.66;5104194;28;20538;-70
2021/10/18 07:32:09;;;;;;;1.15;0.70;;;;;;;11.64;48.09;101231.88;5104071;28;20028;-70
2021/10/18 07:34:34;;;;;;;3.00;1.90;;;;;;;12.05;48.23;101237.91;5085490;28;20020;-70
2021/10/18 07:37:01;;;;;;;2.78;0.90;;;;;;;12.39;46.78;101232.69;5103668;28;20028;-70
2021/10/18 07:39:27;;;;;;;3.67;1.23;;;;;;;12.70;45.75;101236.06;5103706;28;20032;-70
2021/10/18 07:41:55;;;;;;;3.80;0.90;;;;;;;13.00;44.86;101240.25;5103603;28;20026;-69
2021/10/18 07:44:24;;;;;;;2.13;0.85;;;;;;;13.36;44.04;101234.81;5103780;28;20012;-70
2021/10/18 07:46:50;;;;;;;1.55;0.70;;;;;;;13.96;42.90;101230.03;5103642;28;20024;-69
2021/10/18 07:49:16;;;;;;;4.05;0.93;;;;;;;14.50;41.88;101232.97;5103532;28;20052;-71
2021/10/18 07:51:41;;;;;;;2.85;1.00;;;;;;;14.91;39.67;101229.88;5103520;28;20027;-69
2021/10/18 07:54:07;;;;;;;1.25;0.75;;;;;;;15.10;39.30;101233.97;5103487;28;20024;-70
2021/10/18 07:56:32;;;;;;;2.58;0.80;;;;;;;15.07;37.89;101234.03;5085379;28;20012;-70
2021/10/18 07:58:58;;;;;;;6.72;1.48;;;;;;;14.57;37.04;101234.63;5103685;28;20020;-69
2021/10/18 08:01:24;;;;;;;2.17;1.00;;;;;;;14.26;38.33;101227.13;5103530;28;20028;-69
2021/10/18 08:03:49;;;;;;;2.47;0.90;;;;;;;14.42;38.40;101237.41;5103682;28;20076;-70
2021/10/18 08:06:15;;;;;;;3.00;1.00;;;;;;;14.65;38.51;101249.34;5103865;28;20027;-70
2021/10/18 08:08:52;;;;;;;3.35;1.00;;;;;;;14.95;38.18;101249.88;5107654;28;20043;-69
2021/10/18 08:11:18;;;;;;;1.23;0.80;;;;;;;15.27;37.61;101245.09;5107923;28;20028;-71
2021/10/18 08:13:43;;;;;;;2.40;1.00;;;;;;;15.48;37.31;101249.13;5107531;28;20016;-69
2021/10/18 08:16:09;;;;;;;4.53;1.90;;;;;;;15.79;37.06;101248.63;5107738;28;20106;-70
2021/10/18 08:18:35;;;;;;;2.65;1.10;;;;;;;16.20;36.75;101253.19;5107673;28;20107;-68
2021/10/18 08:21:00;;;;;;;2.70;1.20;;;;;;;16.52;36.38;101256.94;5107656;28;20176;-69
2021/10/18 08:23:26;;;;;;;2.80;1.50;;;;;;;16.71;35.81;101264.44;5107275;28;20059;-69
2021/10/18 08:25:51;;;;;;;2.65;1.50;;;;;;;16.73;35.94;101268.78;5107996;28;20039;-70
2021/10/18 08:28:17;;;;;;;3.83;1.38;;;;;;;16.85;36.12;101261.56;5122941;28;20026;-70
2021/10/18 08:30:42;;;;;;;3.72;1.67;;;;;;;17.16;35.95;101260.91;5107542;28;20024;-71
2021/10/18 08:33:11;;;;;;;4.45;1.73;;;;;;;17.59;35.99;101261.66;5107312;28;20020;-69
2021/10/18 08:35:36;;;;;;;2.65;1.27;;;;;;;17.93;35.09;101248.59;5107315;28;20051;-69
2021/10/18 08:45:51;;;;;;;3.83;1.63;;;;;;;18.40;34.65;101265.78;5107083;28;20391;-69
2021/10/18 08:48:17;;;;;;;7.35;1.83;;;;;;;18.43;34.27;101266.56;5107104;28;20385;-69
2021/10/18 08:50:42;;;;;;;6.55;1.90;;;;;;;18.27;34.50;101258.25;5107100;28;20400;-69
2021/10/18 08:53:08;;;;;;;7.25;2.35;;;;;;;18.23;34.43;101269.72;5106982;28;20028;-69
2021/10/18 08:55:37;;;;;;;6.15;1.73;;;;;;;18.16;34.73;101262.94;5088573;28;20024;-69
2021/10/18 08:58:04;;;;;;;6.72;2.17;;;;;;;17.96;34.31;101261.63;5106746;28;20035;-70
2021/10/18 09:00:51;;;;;;;5.78;2.00;;;;;;;17.62;34.94;101273.00;5106667;28;20016;-69
2021/10/18 09:03:26;;;;;;;6.18;2.35;;;;;;;17.26;34.97;101279.94;5106699;28;20027;-69
2021/10/18 09:06:11;;;;;;;5.47;2.10;;;;;;;16.90;35.57;101285.06;5106815;28;20366;-70
2021/10/18 09:08:40;;;;;;;3.42;1.95;;;;;;;17.06;36.11;101283.81;5122425;28;20073;-70
2021/10/18 09:11:11;;;;;;;7.68;2.40;;;;;;;17.27;35.70;101292.16;5106827;28;20020;-70
2021/10/18 09:13:41;;;;;;;6.57;2.58;;;;;;;17.50;35.64;101285.53;5106306;28;20055;-70
2021/10/18 09:16:08;;;;;;;5.55;2.20;;;;;;;17.74;35.27;101291.09;5106617;28;20035;-70
2021/10/18 09:18:34;;;;;;;7.13;2.22;;;;;;;18.07;34.68;101296.38;5106408;28;20028;-70
2021/10/18 09:20:59;;;;;;;5.82;1.88;;;;;;;18.26;34.32;101284.56;5106452;28;20038;-70
2021/10/18 09:23:31;;;;;;;7.80;2.05;;;;;;;18.75;34.16;101295.50;5106461;28;20048;-69
2021/10/18 09:26:03;;;;;;;;;;;;;;;18.97;34.58;101294.00;5107074;28;20024;-70
2021/10/18 09:28:29;;;;;;;5.68;1.73;;;;;;;19.24;33.10;101296.72;5087978;28;19908;-70
2021/10/18 09:30:56;;;;;;;6.03;1.77;;;;;;;19.39;32.08;101295.41;5106213;28;20233;-69
2021/10/18 09:33:34;;;;;;;5.00;1.70;;;;;;;19.47;31.63;101303.94;5106170;28;20036;-69
2021/10/18 09:36:03;;;;;;;7.97;1.98;;;;;;;19.60;30.24;101291.19;5106169;28;20031;-69
2021/10/18 09:38:29;;;;;;;6.65;1.50;;;;;;;19.40;30.38;101295.34;5106051;28;20062;-69
2021/10/18 09:41:00;;;;;;;7.97;1.13;;;;;;;19.16;30.70;101291.69;5106139;28;20020;-70
2021/10/18 09:43:32;;;;;;;6.43;2.00;;;;;;;19.59;30.46;101301.78;5106006;28;20382;-70
2021/10/18 09:46:15;;;;;;;5.72;1.35;;;;;;;19.27;29.72;101300.13;5106194;28;20083;-70
2021/10/18 10:55:51;;;;;;;1.20;0.45;;;;;;;17.05;27.63;101302.22;5104692;28;20091;-70
2021/10/18 10:58:35;;;;;;;1.15;0.70;;;;;;;16.43;27.44;101299.94;5104003;28;20031;-70
2021/10/18 11:01:01;;;;;;;2.47;0.65;;;;;;;15.68;27.73;101300.28;5104262;28;20035;-70
2021/10/18 11:03:42;;;;;;;2.20;0.60;;;;;;;15.16;28.39;101308.03;5119983;28;20023;-70
2021/10/18 11:06:13;;;;;;;1.10;0.60;;;;;;;14.83;28.94;101306.66;5104203;28;20020;-70
2021/10/18 11:08:44;;;;;;;1.00;0.60;;;;;;;14.70;29.29;101308.53;5086390;28;20560;-69
2021/10/18 11:11:10;;;;;;;1.85;0.60;;;;;;;14.70;28.21;101305.91;5104037;28;20032;-70
2021/10/18 11:13:49;;;;;;;0.98;0.57;;;;;;;14.73;28.69;101305.00;5104074;28;20031;-70
2021/10/18 11:16:18;;;;;;;1.42;0.75;;;;;;;14.62;28.35;101295.53;5085919;28;20508;-70
2021/10/18 11:18:48;;;;;;;1.40;0.65;;;;;;;14.16;28.74;101296.00;5103843;28;20036;-70
2021/10/18 11:21:20;;;;;;;6.80;0.60;;;;;;;13.92;29.30;101300.53;5104254;28;20062;-69
2021/10/18 11:24:02;;;;;;;1.17;0.70;;;;;;;13.78;29.23;101306.75;5104041;28;20058;-71
2021/10/18 11:26:29;;;;;;;1.10;0.53;;;;;;;13.55;29.62;101302.56;5104324;28;20502;-71
2021/10/18 11:28:56;;;;;;;2.65;0.40;;;;;;;13.21;29.81;101297.50;5103645;28;20046;-70
2021/10/18 11:31:51;;;;;;;2.33;0.70;;;;;;;12.53;30.62;101302.09;5104000;28;20437;-70
2021/10/18 11:34:21;;;;;;;0.93;0.60;;;;;;;12.07;31.67;101298.66;5076665;28;20040;-70
2021/10/18 11:36:50;;;;;;;2.42;0.70;;;;;;;11.62;32.14;101281.28;5103997;28;20035;-70
2021/10/18 11:39:17;;;;;;;0.82;0.50;;;;;;;11.45;32.82;101289.06;5103764;28;20047;-70
2021/10/18 11:41:58;;;;;;;1.52;0.82;;;;;;;11.26;33.41;101298.53;5118596;28;20024;-69
2021/10/18 11:44:55;;;;;;;1.20;0.50;;;;;;;11.06;33.93;101296.72;5103728;28;20357;-70
2021/10/18 11:47:23;;;;;;;0.57;0.50;;;;;;;10.85;34.44;101290.56;5103732;28;20488;-70
2021/10/18 11:50:12;;;;;;;5.32;0.75;;;;;;;10.71;34.66;101287.91;5103701;28;20028;-69
2021/10/18 11:52:43;;;;;;;0.85;0.55;;;;;;;10.63;34.87;101285.28;5103831;28;20020;-70
2021/10/18 11:55:11;;;;;;;1.23;0.50;;;;;;;10.53;35.02;101284.34;5103811;28;20035;-69
2021/10/18 11:57:42;;;;;;;0.80;0.55;;;;;;;10.42;35.61;101288.56;5103465;28;20040;-70
2021/10/18 12:00:14;;;;;;;1.30;0.60;;;;;;;10.39;35.98;101293.75;5103536;28;20024;-70
2021/10/18 12:02:42;;;;;;;0.77;0.57;;;;;;;10.43;36.01;101294.63;5103615;28;20133;-70
2021/10/18 12:05:08;;;;;;;1.10;0.68;;;;;;;10.33;36.40;101283.31;5119183;28;20384;-70
2021/10/18 12:07:45;;;;;;;1.42;0.73;;;;;;;10.41;36.57;101287.69;5103589;28;20043;-70
2021/10/18 12:10:20;;;;;;;0.57;0.50;;;;;;;10.50;36.29;101283.47;5103552;28;20103;-70
2021/10/18 12:13:21;;;;;;;0.85;0.50;;;;;;;10.53;35.93;101280.88;5103313;28;20028;-71
2021/10/18 12:16:05;;;;;;;1.13;0.63;;;;;;;10.38;36.03;101282.47;5103593;28;20045;-69
2021/10/18 12:18:38;;;;;;;1.10;0.70;;;;;;;10.28;35.80;101281.56;5103317;28;20039;-71
2021/10/18 12:21:12;;;;;;;1.27;0.60;;;;;;;10.22;35.99;101285.84;5103367;28;20083;-70
2021/10/18 12:23:49;;;;;;;0.90;0.60;;;;;;;10.26;36.35;101277.22;5103042;28;20040;-70
2021/10/18 12:26:23;;;;;;;0.70;0.60;;;;;;;10.33;36.25;101279.00;5103512;28;20024;-70
2021/10/18 12:28:56;;;;;;;0.82;0.60;;;;;;;10.37;36.13;101283.34;5103113;28;20499;-70
2021/10/18 12:31:36;;;;;;;1.63;0.75;;;;;;;10.31;36.01;101278.13;5103496;28;20020;-70
2021/10/18 12:34:22;;;;;;;1.13;0.63;;;;;;;10.38;35.85;101281.63;5103244;28;20031;-70
2021/10/18 12:37:06;;;;;;;1.60;0.65;;;;;;;10.33;35.72;101278.13;5103318;28;20020;-70
2021/10/18 12:39:47;;;;;;;1.13;0.70;;;;;;;10.23;35.92;101287.56;5103217;28;20490;-70
2021/10/18 12:42:27;;;;;;;0.75;0.60;;;;;;;10.12;36.30;101285.78;5103179;28;20028;-70
2021/10/18 12:45:14;;;;;;;1.20;0.77;;;;;;;10.03;36.68;101275.34;5103185;28;20065;-70
2021/10/18 12:47:41;;;;;;;0.50;0.50;;;;;;;10.12;36.77;101279.72;5103319;28;20016;-70
2021/10/18 12:50:08;;;;;;;1.63;0.95;;;;;;;10.14;36.84;101276.25;5103493;28;20099;-70